createdAt,value
2024-03-04T00:00:13.289Z,15.27
2024-03-04T00:02:41.973Z,15.23
2024-03-04T00:05:10.376Z,15.50
2024-03-04T00:07:39.113Z,14.47
2024-03-04T00:10:09.103Z,16.60
2024-03-04T00:12:38.392Z,14.90
2024-03-04T00:15:07.455Z,16.57
2024-03-04T00:17:36.327Z,16.77
2024-03-04T00:20:07.221Z,15.70
2024-03-04T00:22:35.303Z,15.27
2024-03-04T00:25:03.352Z,14.47
2024-03-04T00:27:31.265Z,15.40
2024-03-04T00:30:00.536Z,16.00
2024-03-04T00:32:28.514Z,14.07
2024-03-04T00:34:56.468Z,15.90
2024-03-04T00:37:25.796Z,15.07
2024-03-04T00:39:54.077Z,14.60
2024-03-04T00:42:23.930Z,15.50
2024-03-04T00:44:52.839Z,15.87
2024-03-04T00:47:22.157Z,14.70
2024-03-04T00:49:50.070Z,14.50
2024-03-04T00:52:18.382Z,14.40
2024-03-04T00:54:46.743Z,14.70
2024-03-04T00:57:14.672Z,16.60
2024-03-04T00:59:42.725Z,13.43
2024-03-04T01:02:11.218Z,16.00
2024-03-04T01:04:40.896Z,13.97
2024-03-04T01:07:09.401Z,14.30
2024-03-04T01:09:37.418Z,14.60
2024-03-04T01:12:05.616Z,15.00
2024-03-04T01:14:34.009Z,15.20
2024-03-04T01:17:01.867Z,15.50
2024-03-04T01:19:29.812Z,14.30
2024-03-04T01:21:59.360Z,15.43
2024-03-04T01:24:28.996Z,15.10
2024-03-04T01:26:57.692Z,14.83
2024-03-04T01:29:27.229Z,15.07
2024-03-04T01:31:56.059Z,14.57
2024-03-04T01:34:24.881Z,13.40
2024-03-04T01:36:52.804Z,13.60
2024-03-04T01:39:22.246Z,13.60
2024-03-04T01:41:50.144Z,12.83
2024-03-04T01:44:18.182Z,13.90
2024-03-04T01:46:47.054Z,12.83
2024-03-04T01:49:15.462Z,13.50
2024-03-04T01:51:43.644Z,13.80
2024-03-04T01:54:11.722Z,13.40
2024-03-04T01:56:41.788Z,13.70
2024-03-04T01:59:09.848Z,13.27
2024-03-04T02:01:38.017Z,13.53
2024-03-04T02:04:06.195Z,13.93
2024-03-04T02:06:34.136Z,14.17
2024-03-04T02:09:02.139Z,12.70
2024-03-04T02:11:30.981Z,12.30
2024-03-04T02:14:00.593Z,14.20
2024-03-04T02:16:28.571Z,12.37
2024-03-04T02:18:56.614Z,11.93
2024-03-04T02:21:28.497Z,12.57
2024-03-04T02:23:57.754Z,12.67
2024-03-04T02:26:26.472Z,12.17
2024-03-04T02:28:54.366Z,11.30
2024-03-04T02:31:22.377Z,11.87
2024-03-04T02:33:50.509Z,12.40
2024-03-04T02:36:18.811Z,13.13
2024-03-04T02:38:47.052Z,14.47
2024-03-04T02:41:16.762Z,13.37
2024-03-04T02:43:47.385Z,12.73
2024-03-04T02:46:17.779Z,13.03
2024-03-04T02:48:45.799Z,14.50
2024-03-04T02:51:13.695Z,13.03
2024-03-04T02:53:41.571Z,12.27
2024-03-04T02:56:09.447Z,12.57
2024-03-04T02:58:38.766Z,13.43
2024-03-04T03:01:06.792Z,13.90
2024-03-04T03:03:34.828Z,12.40
2024-03-04T03:06:02.716Z,13.37
2024-03-04T03:08:30.575Z,14.67
2024-03-04T03:10:58.676Z,13.37
2024-03-04T03:13:26.642Z,12.50
2024-03-04T03:15:55.898Z,13.30
2024-03-04T03:18:23.793Z,12.57
2024-03-04T03:20:52.829Z,11.50
2024-03-04T03:23:21.120Z,12.27
2024-03-04T03:25:49.119Z,12.97
2024-03-04T03:28:17.065Z,13.10
2024-03-04T03:30:44.948Z,14.23
2024-03-04T03:33:14.242Z,13.10
2024-03-04T03:35:42.198Z,13.10
2024-03-04T03:38:10.109Z,12.73
2024-03-04T03:40:38.201Z,15.10
2024-03-04T03:43:06.198Z,14.30
2024-03-04T03:45:34.584Z,12.33
2024-03-04T03:48:02.471Z,15.67
2024-03-04T03:50:31.693Z,17.80
2024-03-04T03:52:59.558Z,14.20
2024-03-04T03:55:27.520Z,15.60
2024-03-04T03:57:58.543Z,15.23
2024-03-04T04:00:29.856Z,15.00
2024-03-04T04:02:59.807Z,15.63
2024-03-04T04:05:27.957Z,15.93
2024-03-04T04:07:58.880Z,16.70
2024-03-04T04:10:26.842Z,16.37
2024-03-04T04:12:54.839Z,16.07
2024-03-04T04:15:24.246Z,16.17
2024-03-04T04:17:53.081Z,16.57
2024-03-04T04:20:20.944Z,17.60
2024-03-04T04:22:48.779Z,19.77
2024-03-04T04:25:18.310Z,17.40
2024-03-04T04:27:47.562Z,16.50
2024-03-04T04:30:15.744Z,17.63
2024-03-04T04:32:43.719Z,18.27
2024-03-04T04:35:12.078Z,17.17
2024-03-04T04:37:40.178Z,16.83
2024-03-04T04:40:11.003Z,18.40
2024-03-04T04:42:40.876Z,18.70
2024-03-04T04:45:09.269Z,19.90
2024-03-04T04:47:37.254Z,18.10
2024-03-04T04:50:06.808Z,19.13
2024-03-04T04:52:34.928Z,20.23
2024-03-04T04:55:03.055Z,19.57
2024-03-04T04:57:30.972Z,19.37
2024-03-04T05:00:00.277Z,20.67
2024-03-04T05:02:29.758Z,18.83
2024-03-04T05:04:58.740Z,19.73
2024-03-04T05:07:27.534Z,19.83
2024-03-04T05:09:56.898Z,19.97
2024-03-04T05:12:25.005Z,21.30
2024-03-04T05:14:52.964Z,21.77
2024-03-04T05:17:22.672Z,21.13
2024-03-04T05:19:51.052Z,20.67
2024-03-04T05:22:19.386Z,21.43
2024-03-04T05:24:47.399Z,21.27
2024-03-04T05:27:15.621Z,22.00
2024-03-04T05:29:43.533Z,22.30
2024-03-04T05:32:12.110Z,22.30
2024-03-04T05:34:43.502Z,20.77
2024-03-04T05:37:12.631Z,20.97
2024-03-04T05:39:40.584Z,21.90
2024-03-04T05:42:09.660Z,21.63
2024-03-04T05:44:37.537Z,23.67
2024-03-04T05:47:06.017Z,21.97
2024-03-04T05:49:35.100Z,23.03
2024-03-04T05:52:04.365Z,26.73
2024-03-04T05:54:33.361Z,23.60
2024-03-04T05:57:01.306Z,21.10
2024-03-04T05:59:29.173Z,22.80
2024-03-04T06:01:57.105Z,22.23
2024-03-04T06:04:25.307Z,23.70
2024-03-04T06:06:53.244Z,21.33
2024-03-04T06:09:23.131Z,21.70
2024-03-04T06:11:51.126Z,21.90
2024-03-04T06:14:19.716Z,22.53
2024-03-04T06:16:48.313Z,23.23
2024-03-04T06:19:16.208Z,23.23
2024-03-04T06:21:46.412Z,22.83
2024-03-04T06:24:15.886Z,26.37
2024-03-04T06:26:45.202Z,25.00
2024-03-04T06:29:13.038Z,21.97
2024-03-04T06:31:40.972Z,23.47
2024-03-04T06:34:16.705Z,23.50
2024-03-04T06:36:51.261Z,22.17
2024-03-04T06:39:21.613Z,23.13
2024-03-04T06:41:50.893Z,24.43
2024-03-04T06:44:19.117Z,24.40
2024-03-04T06:46:47.267Z,22.70
2024-03-04T06:49:15.852Z,23.33
2024-03-04T06:51:43.780Z,25.20
2024-03-04T06:54:12.242Z,24.30
2024-03-04T06:56:40.157Z,26.27
2024-03-04T06:59:09.395Z,25.90
2024-03-04T07:01:37.488Z,23.53
2024-03-04T07:04:05.633Z,26.07
2024-03-04T07:06:33.577Z,24.27
2024-03-04T07:09:01.531Z,27.13
2024-03-04T07:11:29.491Z,26.13
2024-03-04T07:13:57.542Z,26.90
2024-03-04T07:16:26.795Z,27.90
2024-03-04T07:18:54.684Z,25.30
2024-03-04T07:21:22.613Z,26.97
2024-03-04T07:23:50.575Z,24.93
2024-03-04T07:26:21.615Z,27.87
2024-03-04T07:28:49.744Z,26.90
2024-03-04T07:31:18.103Z,27.77
2024-03-04T07:33:47.702Z,27.53
2024-03-04T07:36:17.372Z,27.43
2024-03-04T07:38:46.148Z,25.87
2024-03-04T07:41:14.224Z,28.57
2024-03-04T07:43:43.642Z,27.40
2024-03-04T07:46:11.710Z,26.63
2024-03-04T07:48:39.600Z,26.20
2024-03-04T07:51:08.890Z,28.73
2024-03-04T07:53:36.814Z,28.97
2024-03-04T07:56:05.274Z,28.37
2024-03-04T07:58:33.468Z,27.70
2024-03-04T08:01:01.548Z,27.10
2024-03-04T08:03:29.484Z,31.07
2024-03-04T08:05:57.369Z,26.53
2024-03-04T08:08:26.607Z,25.80
2024-03-04T08:10:54.603Z,28.87
2024-03-04T08:13:22.698Z,27.67
2024-03-04T08:15:50.788Z,25.63
2024-03-04T08:18:18.704Z,29.20
2024-03-04T08:20:46.823Z,28.40
2024-03-04T08:23:14.731Z,29.77
2024-03-04T08:25:44.021Z,27.67
2024-03-04T08:28:19.891Z,26.57
2024-03-04T08:30:56.081Z,29.80
2024-03-04T08:33:24.065Z,27.47
2024-03-04T08:35:51.962Z,32.07
2024-03-04T08:38:19.885Z,26.57
2024-03-04T08:40:49.351Z,26.73
2024-03-04T08:43:17.441Z,29.20
2024-03-04T08:45:45.353Z,29.47
2024-03-04T08:48:13.435Z,28.40
2024-03-04T08:50:41.309Z,29.97
2024-03-04T08:53:09.627Z,29.77
2024-03-04T08:55:37.626Z,29.37
2024-03-04T08:58:07.092Z,30.20
2024-03-04T09:00:35.110Z,30.17
2024-03-04T09:03:03.116Z,26.80
2024-03-04T09:05:31.036Z,28.97
2024-03-04T09:08:03.838Z,29.03
2024-03-04T09:10:32.043Z,30.40
2024-03-04T09:13:00.198Z,30.33
2024-03-04T09:15:29.518Z,29.00
2024-03-04T09:17:57.482Z,28.93
2024-03-04T09:20:25.479Z,29.13
2024-03-04T09:22:54.211Z,29.50
2024-03-04T09:25:22.216Z,28.30
2024-03-04T09:27:50.200Z,29.73
2024-03-04T09:30:18.091Z,27.63
2024-03-04T09:32:47.526Z,30.43
2024-03-04T09:35:16.486Z,31.30
2024-03-04T09:37:45.890Z,30.50
2024-03-04T09:40:14.648Z,30.07
2024-03-04T09:42:48.502Z,33.50
2024-03-04T09:45:16.873Z,30.07
2024-03-04T09:47:48.432Z,29.70
2024-03-04T09:50:19.284Z,30.60
2024-03-04T09:52:48.463Z,31.30
2024-03-04T09:55:16.704Z,32.00
2024-03-04T09:57:44.809Z,30.10
2024-03-04T10:00:15.537Z,31.07
2024-03-04T10:02:44.122Z,29.70
2024-03-04T10:05:14.644Z,28.13
2024-03-04T10:07:43.136Z,28.30
2024-03-04T10:10:13.898Z,29.60
2024-03-04T10:12:41.961Z,28.43
2024-03-04T10:15:11.763Z,29.17
2024-03-04T10:17:40.175Z,27.60
2024-03-04T10:20:09.654Z,27.17
2024-03-04T10:22:40.668Z,29.20
2024-03-04T10:25:11.114Z,28.63
2024-03-04T10:27:41.480Z,26.70
2024-03-04T10:30:14.170Z,28.90
2024-03-04T10:32:47.862Z,26.87
2024-03-04T10:35:16.876Z,26.93
2024-03-04T10:37:46.929Z,31.50
2024-03-04T10:40:15.761Z,28.50
2024-03-04T10:42:46.527Z,29.97
2024-03-04T10:45:16.183Z,29.17
2024-03-04T10:47:46.305Z,30.53
2024-03-04T10:50:15.998Z,29.50
2024-03-04T10:52:45.859Z,29.10
2024-03-04T10:55:14.512Z,28.90
2024-03-04T10:57:45.942Z,28.47
2024-03-04T11:00:26.816Z,28.87
2024-03-04T11:03:05.380Z,29.10
2024-03-04T11:05:34.972Z,28.37
2024-03-04T11:08:06.635Z,29.40
2024-03-04T11:10:38.421Z,30.63
2024-03-04T11:13:16.485Z,29.20
2024-03-04T11:16:01.136Z,27.23
2024-03-04T11:18:41.385Z,27.97
2024-03-04T11:21:09.887Z,30.10
2024-03-04T11:23:40.117Z,30.40
2024-03-04T11:26:10.764Z,30.90
2024-03-04T11:28:42.394Z,29.93
2024-03-04T11:31:12.192Z,28.07
2024-03-04T11:33:42.281Z,28.37
2024-03-04T11:36:11.351Z,28.80
2024-03-04T11:38:45.434Z,28.50
2024-03-04T11:41:14.652Z,28.50
2024-03-04T11:43:52.005Z,27.30
2024-03-04T11:46:21.033Z,26.63
2024-03-04T11:48:49.127Z,27.67
2024-03-04T11:51:38.622Z,27.37
2024-03-04T11:54:09.588Z,27.40
2024-03-04T11:56:41.626Z,27.20
2024-03-04T11:59:13.391Z,27.60
2024-03-04T12:01:41.370Z,28.83
2024-03-04T12:04:09.451Z,25.80
2024-03-04T12:06:38.127Z,27.73
2024-03-04T12:09:26.637Z,24.47
2024-03-04T12:11:55.651Z,25.03
2024-03-04T12:14:23.749Z,24.20
2024-03-04T12:16:51.809Z,24.60
2024-03-04T12:19:19.723Z,24.83
2024-03-04T12:21:49.979Z,23.53
2024-03-04T12:24:22.614Z,25.90
2024-03-04T12:26:51.797Z,25.67
2024-03-04T12:29:24.136Z,24.30
2024-03-04T12:31:54.443Z,22.57
2024-03-04T12:34:23.253Z,23.70
2024-03-04T12:36:51.687Z,24.60
2024-03-04T12:39:21.751Z,24.90
2024-03-04T12:41:50.348Z,23.17
2024-03-04T12:44:20.269Z,24.73
2024-03-04T12:46:50.319Z,24.43
2024-03-04T12:49:18.485Z,23.93
2024-03-04T12:51:47.729Z,23.50
2024-03-04T12:54:29.857Z,22.77
2024-03-04T12:56:57.919Z,25.30
2024-03-04T12:59:25.799Z,23.50
2024-03-04T13:01:53.795Z,25.17
2024-03-04T13:04:21.874Z,25.77
2024-03-04T13:06:49.873Z,24.27
2024-03-04T13:09:18.016Z,26.27
2024-03-04T13:11:47.451Z,26.87
2024-03-04T13:14:15.405Z,27.33
2024-03-04T13:16:43.359Z,27.30
2024-03-04T13:19:12.596Z,29.90
2024-03-04T13:21:40.591Z,29.80
2024-03-04T13:24:08.847Z,28.90
2024-03-04T13:26:36.773Z,29.20
2024-03-04T13:29:06.638Z,29.90
2024-03-04T13:31:34.612Z,27.60
2024-03-04T13:34:02.520Z,25.53
2024-03-04T13:36:30.467Z,27.90
2024-03-04T13:38:58.390Z,23.30
2024-03-04T13:41:26.309Z,23.10
2024-03-04T13:43:54.261Z,24.37
2024-03-04T13:46:23.827Z,25.13
2024-03-04T13:48:51.836Z,22.10
2024-03-04T13:51:19.720Z,22.13
2024-03-04T13:53:48.886Z,23.80
2024-03-04T13:56:17.222Z,25.23
2024-03-04T13:58:45.444Z,26.30
2024-03-04T14:01:13.857Z,27.40
2024-03-04T14:03:45.556Z,23.40
2024-03-04T14:06:13.911Z,24.10
2024-03-04T14:08:41.808Z,23.50
2024-03-04T14:11:09.808Z,23.90
2024-03-04T14:13:39.308Z,21.53
2024-03-04T14:16:10.257Z,20.50
2024-03-04T14:18:38.268Z,20.23
2024-03-04T14:21:08.863Z,21.50
2024-03-04T14:23:39.140Z,20.23
2024-03-04T14:26:11.399Z,22.20
2024-03-04T14:28:39.453Z,22.87
2024-03-04T14:31:08.435Z,19.93
2024-03-04T14:33:36.487Z,19.47
2024-03-04T14:36:07.624Z,22.10
2024-03-04T14:38:35.854Z,20.40
2024-03-04T14:41:04.899Z,21.20
2024-03-04T14:43:33.629Z,20.10
2024-03-04T14:46:01.503Z,21.07
2024-03-04T14:48:30.508Z,20.73
2024-03-04T14:50:58.937Z,21.40
2024-03-04T14:53:29.812Z,20.93
2024-03-04T14:55:59.045Z,20.93
2024-03-04T14:58:27.438Z,21.13
2024-03-04T15:00:56.048Z,21.07
2024-03-04T15:03:24.077Z,22.03
2024-03-04T15:05:52.040Z,20.47
2024-03-04T15:08:19.924Z,22.80
2024-03-04T15:10:50.886Z,21.20
2024-03-04T15:13:20.227Z,20.40
2024-03-04T15:15:48.183Z,21.70
2024-03-04T15:18:21.650Z,20.87
2024-03-04T15:20:54.159Z,18.90
2024-03-04T15:23:22.070Z,19.30
2024-03-04T15:25:51.566Z,18.93
2024-03-04T15:28:19.667Z,21.80
2024-03-04T15:30:48.678Z,20.10
2024-03-04T15:33:17.732Z,21.90
2024-03-04T15:35:45.644Z,20.50
2024-03-04T15:38:13.523Z,21.87
2024-03-04T15:40:43.671Z,22.03
2024-03-04T15:43:16.275Z,19.97
2024-03-04T15:45:45.822Z,20.17
2024-03-04T15:48:13.747Z,22.07
2024-03-04T15:50:41.697Z,19.97
2024-03-04T15:53:09.570Z,21.23
2024-03-04T15:55:37.522Z,19.70
2024-03-04T15:58:09.952Z,20.00
2024-03-04T16:00:40.375Z,18.30
2024-03-04T16:03:08.733Z,20.13
2024-03-04T16:05:36.693Z,24.10
2024-03-04T16:08:05.252Z,21.80
2024-03-04T16:10:33.353Z,20.83
2024-03-04T16:13:01.784Z,19.90
2024-03-04T16:15:40.737Z,20.33
2024-03-04T16:18:16.631Z,19.50
2024-03-04T16:20:44.878Z,19.20
2024-03-04T16:23:12.814Z,18.30
2024-03-04T16:25:40.789Z,20.20
2024-03-04T16:28:09.002Z,18.63
2024-03-04T16:30:38.242Z,18.70
2024-03-04T16:33:07.246Z,20.17
2024-03-04T16:35:36.690Z,22.03
2024-03-04T16:38:04.948Z,20.40
2024-03-04T16:40:32.858Z,21.37
2024-03-04T16:43:00.813Z,17.07
2024-03-04T16:45:28.724Z,18.43
2024-03-04T16:47:56.734Z,16.13
2024-03-04T16:50:24.648Z,16.80
2024-03-04T16:52:56.186Z,16.17
2024-03-04T16:55:24.316Z,15.70
2024-03-04T16:57:53.652Z,15.37
2024-03-04T17:00:22.080Z,15.43
2024-03-04T17:02:50.679Z,14.73
2024-03-04T17:05:18.594Z,15.30
2024-03-04T17:07:49.033Z,15.57
2024-03-04T17:10:19.181Z,16.43
2024-03-04T17:12:47.101Z,16.30
2024-03-04T17:15:15.105Z,15.00
2024-03-04T17:17:43.004Z,16.13
2024-03-04T17:20:11.640Z,15.33
2024-03-04T17:22:40.678Z,14.70
2024-03-04T17:25:09.157Z,15.10
2024-03-04T17:27:38.492Z,15.30
2024-03-04T17:30:08.954Z,16.40
2024-03-04T17:32:36.932Z,14.73
2024-03-04T17:35:05.732Z,16.83
2024-03-04T17:37:33.700Z,15.80
2024-03-04T17:40:01.961Z,15.60
2024-03-04T17:42:29.827Z,15.90
2024-03-04T17:44:59.095Z,15.20
2024-03-04T17:47:27.253Z,15.10
2024-03-04T17:49:55.257Z,15.90
2024-03-04T17:52:22.633Z,15.10
2024-03-04T17:54:51.411Z,14.80
2024-03-04T17:57:19.471Z,15.60
2024-03-04T17:59:47.391Z,16.10
2024-03-04T18:02:19.737Z,16.60
2024-03-04T18:04:49.349Z,16.73
2024-03-04T18:07:17.930Z,15.20
2024-03-04T18:09:46.476Z,17.00
2024-03-04T18:12:14.439Z,18.17
2024-03-04T18:14:42.492Z,16.77
2024-03-04T18:17:10.533Z,17.40
2024-03-04T18:19:39.742Z,15.70
2024-03-04T18:22:08.092Z,17.53
2024-03-04T18:24:36.013Z,16.80
2024-03-04T18:27:04.101Z,17.03
2024-03-04T18:29:32.011Z,17.23
2024-03-04T18:31:59.884Z,19.37
2024-03-04T18:34:30.474Z,16.40
2024-03-04T18:37:00.257Z,17.27
2024-03-04T18:39:30.315Z,15.73
2024-03-04T18:41:59.829Z,16.93
2024-03-04T18:44:27.713Z,18.20
2024-03-04T18:46:55.757Z,17.50
2024-03-04T18:49:25.050Z,16.50
2024-03-04T18:51:53.810Z,18.30
2024-03-04T18:54:23.404Z,16.20
2024-03-04T18:56:51.363Z,18.33
2024-03-04T18:59:19.249Z,17.50
2024-03-04T19:01:48.429Z,16.60
2024-03-04T19:04:16.434Z,19.07
2024-03-04T19:06:44.813Z,17.90
2024-03-04T19:09:12.725Z,19.93
2024-03-04T19:11:42.163Z,18.47
2024-03-04T19:14:10.237Z,19.80
2024-03-04T19:16:38.485Z,19.20
2024-03-04T19:19:06.921Z,21.00
2024-03-04T19:21:35.840Z,19.80
2024-03-04T19:24:03.723Z,20.07
2024-03-04T19:26:31.600Z,19.63
2024-03-04T19:29:00.845Z,18.57
2024-03-04T19:31:29.342Z,20.90
2024-03-04T19:33:59.126Z,22.63
2024-03-04T19:36:27.070Z,19.87
2024-03-04T19:38:55.219Z,22.07
2024-03-04T19:41:23.865Z,22.47
2024-03-04T19:43:53.147Z,21.37
2024-03-04T19:46:23.960Z,19.73
2024-03-04T19:48:53.639Z,21.33
2024-03-04T19:51:23.719Z,21.70
2024-03-04T19:53:52.031Z,22.30
2024-03-04T19:56:20.011Z,21.23
2024-03-04T19:58:48.314Z,23.23
2024-03-04T20:01:16.777Z,20.27
2024-03-04T20:03:46.306Z,22.57
2024-03-04T20:06:14.651Z,20.17
2024-03-04T20:08:43.045Z,21.50
2024-03-04T20:11:12.097Z,22.10
2024-03-04T20:13:40.969Z,21.20
2024-03-04T20:16:09.422Z,22.63
2024-03-04T20:18:37.828Z,20.70
2024-03-04T20:21:10.150Z,22.60
2024-03-04T20:23:38.568Z,22.60
2024-03-04T20:26:06.875Z,21.70
2024-03-04T20:28:35.343Z,20.83
2024-03-04T20:31:04.035Z,23.47
2024-03-04T20:33:32.303Z,21.27
2024-03-04T20:36:01.415Z,21.37
2024-03-04T20:38:30.750Z,21.23
2024-03-04T20:40:58.796Z,21.93
2024-03-04T20:43:26.860Z,24.00
2024-03-04T20:45:55.364Z,24.17
2024-03-04T20:48:25.722Z,23.33
2024-03-04T20:50:53.686Z,24.20
2024-03-04T20:53:21.545Z,25.00
2024-03-04T20:55:51.016Z,23.20
2024-03-04T20:58:19.472Z,22.77
2024-03-04T21:00:48.219Z,23.30
2024-03-04T21:03:16.176Z,23.70
2024-03-04T21:05:44.009Z,22.30
2024-03-04T21:08:11.936Z,22.83
2024-03-04T21:10:40.421Z,20.77
2024-03-04T21:13:10.326Z,22.47
2024-03-04T21:15:42.360Z,22.80
2024-03-04T21:18:10.689Z,24.37
2024-03-04T21:20:39.276Z,20.13
2024-03-04T21:23:07.411Z,22.10
2024-03-04T21:25:36.642Z,20.50
2024-03-04T21:28:04.754Z,23.73
2024-03-04T21:30:34.105Z,21.40
2024-03-04T21:33:02.066Z,23.40
2024-03-04T21:35:30.043Z,21.13
2024-03-04T21:37:58.001Z,21.63
2024-03-04T21:40:27.166Z,23.90
2024-03-04T21:42:55.825Z,23.00
2024-03-04T21:45:23.726Z,21.27
2024-03-04T21:47:52.988Z,21.73
2024-03-04T21:50:20.951Z,21.07
2024-03-04T21:52:48.954Z,21.40
2024-03-04T21:55:18.393Z,20.63
2024-03-04T21:57:46.628Z,22.10
2024-03-04T22:00:19.520Z,21.37
2024-03-04T22:02:47.488Z,21.10
2024-03-04T22:05:17.414Z,22.17
2024-03-04T22:07:45.573Z,21.50
2024-03-04T22:10:13.533Z,21.90
2024-03-04T22:12:41.795Z,22.30
2024-03-04T22:15:10.980Z,21.70
2024-03-04T22:17:39.207Z,21.30
2024-03-04T22:20:11.045Z,22.47
2024-03-04T22:22:40.888Z,21.77
2024-03-04T22:25:09.548Z,21.40
2024-03-04T22:27:37.476Z,22.53
2024-03-04T22:30:05.986Z,22.67
2024-03-04T22:32:33.977Z,23.50
2024-03-04T22:35:02.187Z,25.13
2024-03-04T22:37:31.777Z,22.27
2024-03-04T22:40:02.424Z,23.70
2024-03-04T22:42:30.546Z,24.70
2024-03-04T22:44:58.466Z,21.50
2024-03-04T22:47:26.627Z,24.80
2024-03-04T22:49:55.199Z,22.50
2024-03-04T22:52:23.983Z,23.40
2024-03-04T22:54:51.915Z,22.53
2024-03-04T22:57:21.199Z,24.30
2024-03-04T22:59:49.617Z,20.17
2024-03-04T23:02:17.701Z,23.43
2024-03-04T23:04:45.657Z,23.30
2024-03-04T23:07:13.643Z,23.13
2024-03-04T23:09:41.655Z,22.30
2024-03-04T23:12:10.565Z,23.43
2024-03-04T23:14:39.800Z,22.10
2024-03-04T23:17:09.412Z,22.77
2024-03-04T23:19:37.533Z,23.90
2024-03-04T23:22:06.786Z,23.77
2024-03-04T23:24:34.906Z,21.60
2024-03-04T23:27:02.886Z,23.07
2024-03-04T23:29:30.813Z,22.17
2024-03-04T23:32:00.145Z,20.50
2024-03-04T23:34:28.049Z,22.10
2024-03-04T23:36:55.980Z,22.37
2024-03-04T23:39:24.229Z,22.93
2024-03-04T23:41:52.596Z,22.93
2024-03-04T23:44:20.751Z,21.83
2024-03-04T23:46:48.845Z,24.10
2024-03-04T23:49:18.307Z,21.73
2024-03-04T23:51:46.228Z,21.83
2024-03-04T23:54:15.231Z,24.07
2024-03-04T23:56:43.594Z,23.50
2024-03-04T23:59:11.780Z,23.30
